地図

経路データ

SID SEASON NUMBER BASIN SUBBASIN NAME ISO_TIME NATURE LAT LON WMO_WIND WMO_PRES WMO_AGENCY TRACK_TYPE DIST2LAND LANDFALL IFLAG USA_AGENCY USA_ATCF_ID USA_LAT USA_LON USA_RECORD USA_STATUS USA_WIND USA_PRES USA_SSHS USA_R34_NE USA_R34_SE USA_R34_SW USA_R34_NW USA_R50_NE USA_R50_SE USA_R50_SW USA_R50_NW USA_R64_NE USA_R64_SE USA_R64_SW USA_R64_NW USA_POCI USA_ROCI USA_RMW USA_EYE TOKYO_LAT TOKYO_LON TOKYO_GRADE TOKYO_WIND TOKYO_PRES TOKYO_R50_DIR TOKYO_R50_LONG TOKYO_R50_SHORT TOKYO_R30_DIR TOKYO_R30_LONG TOKYO_R30_SHORT TOKYO_LAND CMA_LAT CMA_LON CMA_CAT CMA_WIND CMA_PRES HKO_LAT HKO_LON HKO_CAT HKO_WIND HKO_PRES NEWDELHI_LAT NEWDELHI_LON NEWDELHI_GRADE NEWDELHI_WIND NEWDELHI_PRES NEWDELHI_CI NEWDELHI_DP NEWDELHI_POCI REUNION_LAT REUNION_LON REUNION_TYPE REUNION_WIND REUNION_PRES REUNION_TNUM REUNION_CI REUNION_RMW REUNION_R34_NE REUNION_R34_SE REUNION_R34_SW REUNION_R34_NW REUNION_R50_NE REUNION_R50_SE REUNION_R50_SW REUNION_R50_NW REUNION_R64_NE REUNION_R64_SE REUNION_R64_SW REUNION_R64_NW BOM_LAT BOM_LON BOM_TYPE BOM_WIND BOM_PRES BOM_TNUM BOM_CI BOM_RMW BOM_R34_NE BOM_R34_SE BOM_R34_SW BOM_R34_NW BOM_R50_NE BOM_R50_SE BOM_R50_SW BOM_R50_NW BOM_R64_NE BOM_R64_SE BOM_R64_SW BOM_R64_NW BOM_ROCI BOM_POCI BOM_EYE BOM_POS_METHOD BOM_PRES_METHOD NADI_LAT NADI_LON NADI_CAT NADI_WIND NADI_PRES WELLINGTON_LAT WELLINGTON_LON WELLINGTON_WIND WELLINGTON_PRES DS824_LAT DS824_LON DS824_STAGE DS824_WIND DS824_PRES TD9636_LAT TD9636_LON TD9636_STAGE TD9636_WIND TD9636_PRES TD9635_LAT TD9635_LON TD9635_WIND TD9635_PRES TD9635_ROCI NEUMANN_LAT NEUMANN_LON NEUMANN_CLASS NEUMANN_WIND NEUMANN_PRES MLC_LAT MLC_LON MLC_CLASS MLC_WIND MLC_PRES USA_GUST BOM_GUST BOM_GUST_PER REUNION_GUST REUNION_GUST_PER USA_SEAHGT USA_SEARAD_NE USA_SEARAD_SE USA_SEARAD_SW USA_SEARAD_NW STORM_SPEED STORM_DIR
1978282N19164 1978 105 WP MM NOT_NAMED 1978-10-08 18:00:00 TS 19.1000 163.900 main 2822 2822 O_O______OO___ jtwc_wp WP251978 19.3000 163.700 TD 20 -1 18.5000 164.500 0 19 1008 19.3000 163.700 TC 20 19.3000 163.700 1 20 10 313
1978282N19164 1978 105 WP MM NOT_NAMED 1978-10-08 21:00:00 TS 19.4388 163.518 main 2831 2808 P_P______PP___ WP251978 19.6003 163.308 TD 20 -1 18.9577 164.130 0 19 1008 19.6003 163.308 TC 20 19.5969 163.327 1 20 9 316
1978282N19164 1978 105 WP MM NOT_NAMED 1978-10-09 00:00:00 TS 19.7750 163.200 main 2808 2769 O_O______OO___ jtwc_wp WP251978 19.9000 163.000 TD 20 -1 19.4000 163.800 0 19 1008 19.9000 163.000 TC 20 19.9000 163.000 1 20 8 323
1978282N19164 1978 105 WP MM NOT_NAMED 1978-10-09 03:00:00 TS 20.1070 162.986 main 2769 2731 P_P______PP___ WP251978 20.1999 162.827 TD 20 -1 19.8149 163.535 0 19 1008 20.1999 162.827 TC 20 20.2133 162.756 1 20 8 331
1978282N19164 1978 105 WP MM NOT_NAMED 1978-10-09 06:00:00 TS 20.4317 162.819 main 2731 2693 O_O______OP___ jtwc_wp WP251978 20.5000 162.700 TD 20 -1 20.2000 163.300 0 19 1008 20.5000 162.700 TC 20 20.5268 162.578 1 20 7 332
1978282N19164 1978 105 WP MM NOT_NAMED 1978-10-09 09:00:00 TS 20.7499 162.623 main 2693 2655 P_P______PP___ WP251978 20.8075 162.500 TD 20 -1 20.5574 163.057 0 21 1007 20.8075 162.500 TC 20 20.8270 162.436 1 20 7 329
1978282N19164 1978 105 WP MM NOT_NAMED 1978-10-09 12:00:00 TS 21.0500 162.425 main 2647 2617 O_O______OO___ jtwc_wp WP251978 21.1000 162.300 TD 20 -1 20.9000 162.800 1 23 1006 21.1000 162.300 TC 20 21.1000 162.300 1 20 7 328
1978282N19164 1978 105 WP MM NOT_NAMED 1978-10-09 15:00:00 TS 21.3426 162.231 main 2617 2587 P_P______PP___ WP251978 21.3724 162.150 TD 20 -1 21.2726 162.493 1 23 1006 21.3724 162.150 TC 20 21.3530 162.133 1 21 7 327
1978282N19164 1978 105 WP MM NOT_NAMED 1978-10-09 18:00:00 TS 21.5937 162.041 main 2579 2556 O_O______OP___ jtwc_wp WP251978 21.6000 162.000 TD 20 -1 21.6000 162.200 1 23 1006 21.6000 162.000 TC 20 21.5748 161.965 1 22 6 321
1978282N19164 1978 105 WP MM NOT_NAMED 1978-10-09 21:00:00 TS 21.7835 161.849 main 2549 2534 P_P______PP___ WP251978 21.7725 161.807 TD 22 -1 21.8299 161.992 1 23 1006 21.7725 161.807 TC 22 21.7592 161.789 1 23 5 312
1978282N19164 1978 105 WP MM NOT_NAMED 1978-10-10 00:00:00 TS 21.9250 161.650 main 2534 2511 O_O______OO___ jtwc_wp WP251978 21.9000 161.600 TD 25 -1 22.0000 161.800 1 23 1006 21.9000 161.600 TC 25 21.9000 161.600 1 25 5 306
1978282N19164 1978 105 WP MM NOT_NAMED 1978-10-10 03:00:00 TS 22.0537 161.452 main 2503 2480 P_P______PP___ WP251978 22.0224 161.408 TD 25 -1 22.1650 161.565 1 23 1006 22.0224 161.408 TC 25 22.0048 161.430 1 25 4 299
1978282N19164 1978 105 WP MM NOT_NAMED 1978-10-10 06:00:00 TS 22.1417 161.235 main 2480 2458 O_O______OP___ jtwc_wp WP251978 22.1000 161.200 TD 25 -1 22.3000 161.300 1 23 1006 22.1000 161.200 TC 25 22.0666 161.240 1 25 4 287
1978282N19164 1978 105 WP MM NOT_NAMED 1978-10-10 09:00:00 TS 22.1868 160.995 main 2458 2435 P_P______PP___ WP251978 22.1149 160.980 TD 25 -1 22.4224 161.015 1 23 1006 22.1149 160.980 TC 25 22.0952 161.005 1 25 5 277
1978282N19164 1978 105 WP MM NOT_NAMED 1978-10-10 12:00:00 TS 22.2000 160.700 main 2435 2412 O_O______OO___ jtwc_wp WP251978 22.1000 160.700 TD 25 -1 22.5000 160.700 1 23 1006 22.1000 160.700 TC 25 22.1000 160.700 1 25 6 272
1978282N19164 1978 105 WP MM NOT_NAMED 1978-10-10 15:00:00 TS 22.2081 160.350 main 2405 2375 P_P______PP___ WP251978 22.1074 160.345 TD 25 -1 22.5298 160.380 1 23 1006 22.1074 160.345 TC 25 22.0881 160.329 1 25 7 268
1978282N19164 1978 105 WP MM NOT_NAMED 1978-10-10 18:00:00 TS 22.1781 159.920 main 2375 2345 O_OO_____OP___ jtwc_wp WP251978 22.1000 159.900 TD 25 -1 22.5000 160.000 1 23 1006 22.0000 159.900 TD 25 1004 22.1000 159.900 TC 25 22.0568 159.884 1 25 9 264
1978282N19164 1978 105 WP MM NOT_NAMED 1978-10-10 21:00:00 TS 22.1214 159.384 main 2345 2302 P_PP_____PP___ WP251978 22.0499 159.387 TD 25 -1 22.4227 159.507 1 23 1006 22.0032 159.143 TD 25 1004 22.0499 159.387 TC 25 22.0221 159.373 1 25 11 264
1978282N19164 1978 105 WP MM NOT_NAMED 1978-10-11 00:00:00 TS 22.0632 158.779 main 2302 2266 O_OO_____OO___ jtwc_wp WP251978 22.0000 158.800 TD 25 -1 22.3000 159.000 1 23 1006 22.0000 158.400 TD 25 1004 22.0000 158.800 TC 25 22.0000 158.800 1 25 11 264
1978282N19164 1978 105 WP MM NOT_NAMED 1978-10-11 03:00:00 TS 22.0115 158.172 main 2266 2224 P_PP_____PP___ WP251978 21.9848 158.172 TD 25 -1 22.1345 158.615 1 23 1005 21.9922 157.685 TD 25 1002 21.9848 158.172 TC 25 21.9611 158.213 1 25 11 266
1978282N19164 1978 105 WP MM NOT_NAMED 1978-10-11 06:00:00 TS 21.9887 157.553 main 2224 2175 O_OO_____OP___ jtwc_wp WP251978 22.0000 157.500 TD 25 -1 22.0000 158.200 1 23 1004 22.0000 157.000 TD 25 1000 22.0000 157.500 TC 25 21.9436 157.567 1 25 12 269
1978282N19164 1978 105 WP MM NOT_NAMED 1978-10-11 09:00:00 TS 21.9910 156.908 main 2175 2118 P_PP_____PP___ WP251978 22.0045 156.829 TD 25 -1 21.9548 157.652 1 23 1004 22.0119 156.365 TD 25 1000 22.0045 156.829 TC 25 21.9794 156.862 1 25 13 274
1978282N19164 1978 105 WP MM NOT_NAMED 1978-10-11 12:00:00 TS 22.0800 156.200 main 2118 2046 O_OO_____OO___ jtwc_wp WP251978 22.1000 156.100 TD 25 -1 22.0000 157.000 1 23 1004 22.1000 155.700 TD 25 1000 22.1000 156.100 TC 25 22.1000 156.100 1 25 14 282
1978282N19164 1978 105 WP MM NOT_NAMED 1978-10-11 15:00:00 TS 22.2899 155.402 main 2046 1966 P_PP_____PP___ WP251978 22.3548 155.280 TD 25 -1 22.0825 156.272 1 23 1004 22.2974 154.922 TD 25 1000 22.3548 155.280 TC 25 22.3601 155.257 1 26 16 289
1978282N19164 1978 105 WP MM NOT_NAMED 1978-10-11 18:00:00 TS 22.5998 154.552 main 1966 1872 O_OO_____OP___ jtwc_wp WP251978 22.7000 154.400 TD 25 -1 22.3000 155.500 1 23 1004 22.6000 154.100 TD 25 1000 22.7000 154.400 TC 25 22.6991 154.362 1 27 17 294
1978282N19164 1978 105 WP MM NOT_NAMED 1978-10-11 21:00:00 TS 22.9809 153.699 main 1872 1794 P_PP_____PP___ WP251978 23.0650 153.485 TD 27 -1 22.7116 154.787 1 26 1003 22.9999 153.278 TD 25 1002 23.0650 153.485 TC 27 23.0632 153.460 1 28 17 296
1978282N19164 1978 105 WP MM NOT_NAMED 1978-10-12 00:00:00 TS 23.3600 152.860 main 1785 1716 O_OO_____OO___ jtwc_wp WP251978 23.4000 152.600 TD 30 -1 23.2000 154.000 1 29 1002 23.4000 152.500 TD 25 1004 23.4000 152.600 TC 30 23.4000 152.600 1 30 17 294
1978282N19164 1978 105 WP MM NOT_NAMED 1978-10-12 03:00:00 TS 23.6462 152.056 main 1716 1646 P_PP_____PP___ WP251978 23.6220 151.812 TD 30 -1 23.6450 153.038 1 29 1002 23.6722 151.797 TD 25 1006 23.6220 151.812 TC 30 23.6696 151.820 1 28 15 290
1978282N19164 1978 105 WP MM NOT_NAMED 1978-10-12 06:00:00 TS 23.8758 151.312 main 1640 1580 O_OO_____OP___ jtwc_wp WP251978 23.8000 151.100 TD 30 -1 24.0000 152.000 1 29 1002 23.9000 151.200 TD 25 1008 23.8000 151.100 TC 30 23.8800 151.108 1 27 14 287
1978282N19164 1978 105 WP MM NOT_NAMED 1978-10-12 09:00:00 TS 24.0673 150.583 main 1580 1526 P_PP_____PP___ WP251978 23.9847 150.420 TD 27 -1 24.1660 150.879 1 26 1003 24.1423 150.682 TD 25 1008 23.9847 150.420 TC 27 24.0505 150.443 1 26 13 288
1978282N19164 1978 105 WP MM NOT_NAMED 1978-10-12 12:00:00 TS 24.2800 149.987 main 1526 1481 O_OO_____OO___ jtwc_wp WP251978 24.2000 149.800 TD 25 -1 24.3000 150.000 1 23 1004 24.4000 150.300 TD 25 1008 24.2000 149.800 TC 25 24.2000 149.800 1 25 10 301
1978282N19164 1978 105 WP MM NOT_NAMED 1978-10-12 15:00:00 TS 24.5855 149.649 main 1476 1442 P_PP_____P____ WP251978 24.4804 149.236 TD 22 -1 24.5764 149.657 1 23 1004 24.6998 150.055 TD 25 1008 24.4804 149.236 TC 22 1 8 328
1978282N19164 1978 105 WP MM NOT_NAMED 1978-10-12 18:00:00 TS 24.9200 149.540 main 1442 1421 O_OO_____O____ jtwc_wp WP251978 24.8000 148.700 TD 20 -1 24.9000 149.600 1 23 1004 25.0000 149.900 TD 25 1008 24.8000 148.700 TC 20 1 6 0
1978282N19164 1978 105 WP MM NOT_NAMED 1978-10-12 21:00:00 TS 25.2100 149.627 main 1421 1388 __PP__________ WP251978 TD -1 25.1925 149.527 1 21 1005 25.2275 149.727 TD 25 1009 TC 1 6 1
1978282N19164 1978 105 WP MM NOT_NAMED 1978-10-13 00:00:00 TS 25.5000 149.543 main 1388 1355 __OO__________ 25.5000 149.500 0 19 1006 25.5000 149.600 TD 25 1010 7 346
1978282N19164 1978 105 WP MM NOT_NAMED 1978-10-13 03:00:00 TS 25.8591 149.443 main 1346 1320 __PP__________ 25.8349 149.398 0 19 1006 25.9075 149.533 TD 25 1010 8 351
1978282N19164 1978 105 WP MM NOT_NAMED 1978-10-13 06:00:00 TS 26.2400 149.420 main 1320 1298 __OO__________ 26.2000 149.400 0 19 1006 26.4000 149.500 TD 25 1010 7 13
1978282N19164 1978 105 WP MM NOT_NAMED 1978-10-13 09:00:00 TS 26.5774 149.618 main 1298 1290 __P___________ 26.5774 149.618 0 19 1006 TD 9 34
1978282N19164 1978 105 WP MM NOT_NAMED 1978-10-13 12:00:00 TS 27.0000 150.000 main 1290 1277 __O___________ 27.0000 150.000 0 19 1006 11 37
1978282N19164 1978 105 WP MM NOT_NAMED 1978-10-13 15:00:00 TS 27.4840 150.396 main 1277 1275 __P___________ 27.4840 150.396 0 1007 13 42
1978282N19164 1978 105 WP MM NOT_NAMED 1978-10-13 18:00:00 TS 28.0000 151.000 main 1281 1280 __O___________ 28.0000 151.000 0 1008 17 53
1978282N19164 1978 105 WP MM NOT_NAMED 1978-10-13 21:00:00 TS 28.5075 151.907 main 1307 1307 __P___________ 28.5075 151.907 0 1008 20 60
1978282N19164 1978 105 WP MM NOT_NAMED 1978-10-14 00:00:00 TS 29.0000 153.000 main 1356 __O___________ 29.0000 153.000 0 1008 22 63

デジタル台風データ・検索

IBTrACS Databaseについて

本データベースは、米国NOAAが公開する1842年以降の世界の熱帯低気圧のベストトラックデータアーカイブInternational Best Track Archive for Climate Stewardship (IBTrACS)を、ウェブで閲覧しやすい形式に変換したものです。

最終更新日:2021-12-03